Time;durP1;ratioP1;P1;durP2;ratioP2;P2;SDS_P1;SDS_P2;PMS_P1;PMS_P2;Temp;Humidity;BMP_temperature;BMP_pressure;BME280_temperature;BME280_humidity;BME280_pressure;Samples;Min_cycle;Max_cycle;Signal;HPM_P1;HPM_P2
2023/03/18 00:00:29;;;;;;;1.80;1.70;;;;;;;7.96;81.65;148045.44;5156633;27;20254;-57
2023/03/18 00:02:58;;;;;;;2.23;1.60;;;;;;;8.03;81.07;148064.34;5157049;27;20217;-58
2023/03/18 00:05:26;;;;;;;1.40;1.30;;;;;;;8.06;78.55;148070.69;5157241;27;20561;-58
2023/03/18 00:07:53;;;;;;;2.60;1.50;;;;;;;7.87;79.37;148022.72;5157211;27;20209;-58
2023/03/18 00:10:20;;;;;;;6.77;1.60;;;;;;;8.03;80.62;148064.34;5157111;27;20544;-58
2023/03/18 00:12:47;;;;;;;2.00;1.80;;;;;;;7.89;80.72;148027.78;5156845;27;20604;-58
2023/03/18 00:15:17;;;;;;;1.70;1.60;;;;;;;7.77;81.35;148000.00;5156969;27;20189;-57
2023/03/18 00:17:44;;;;;;;1.80;1.70;;;;;;;7.84;82.02;148016.44;5156624;27;20718;-58
2023/03/18 00:20:13;;;;;;;3.23;1.97;;;;;;;7.73;85.16;147989.91;5156538;27;20277;-59
2023/03/18 00:22:42;;;;;;;6.63;2.10;;;;;;;7.74;83.09;147992.44;5156445;27;20244;-57
2023/03/18 00:25:11;;;;;;;2.20;1.57;;;;;;;7.77;84.28;147998.75;5156562;27;20186;-58
2023/03/18 00:27:38;;;;;;;1.77;1.60;;;;;;;7.68;84.10;147977.31;5156161;27;20225;-59
2023/03/18 00:30:07;;;;;;;2.00;1.80;;;;;;;7.84;84.49;148015.16;5156059;27;20643;-58
2023/03/18 00:32:35;;;;;;;3.47;1.70;;;;;;;7.68;87.24;147977.31;5156620;27;20569;-58
2023/03/18 00:35:02;;;;;;;3.47;2.00;;;;;;;7.63;88.01;147963.47;5156311;27;20182;-58
2023/03/18 00:37:34;;;;;;;2.23;2.00;;;;;;;7.54;89.69;147942.03;5155934;27;20559;-57
2023/03/18 00:40:05;;;;;;;2.27;2.07;;;;;;;7.28;89.38;147877.72;5155711;27;20579;-57
2023/03/18 00:42:37;;;;;;;3.73;1.73;;;;;;;7.41;87.17;147909.25;5156294;27;20209;-59
2023/03/18 00:45:06;;;;;;;2.23;2.13;;;;;;;7.57;90.00;147949.56;5156027;27;20175;-57
2023/03/18 00:47:34;;;;;;;2.07;1.97;;;;;;;7.41;89.85;147909.25;5156063;27;20182;-57
2023/03/18 00:50:02;;;;;;;2.00;1.90;;;;;;;7.40;88.93;147905.44;5156427;27;20234;-57
2023/03/18 00:52:29;;;;;;;3.03;1.60;;;;;;;7.35;89.91;147895.34;5155370;27;20182;-58
2023/03/18 00:54:56;;;;;;;2.17;2.00;;;;;;;7.39;88.59;147904.19;5156122;27;20621;-58
2023/03/18 00:57:24;;;;;;;2.43;2.23;;;;;;;7.44;93.23;147916.78;5156095;27;20713;-58
2023/03/18 00:59:51;;;;;;;2.00;1.90;;;;;;;7.32;92.18;147886.53;5155668;27;20190;-57
2023/03/18 01:02:22;;;;;;;4.93;1.93;;;;;;;7.30;94.27;147882.75;5156018;27;20676;-57
2023/03/18 01:04:49;;;;;;;2.63;2.03;;;;;;;7.39;93.69;147904.19;5155640;27;20211;-57
2023/03/18 01:07:17;;;;;;;3.90;1.97;;;;;;;7.38;94.58;147901.69;5156031;27;20744;-58
2023/03/18 01:09:43;;;;;;;2.53;2.33;;;;;;;7.17;96.48;147848.75;5155975;27;20193;-59
2023/03/18 01:12:11;;;;;;;2.47;2.10;;;;;;;7.19;98.89;147855.03;5155231;27;20566;-57
2023/03/18 01:14:40;;;;;;;4.70;2.37;;;;;;;7.04;100.00;147817.22;5155859;27;20669;-62
2023/03/18 01:17:09;;;;;;;2.80;2.60;;;;;;;6.84;100.00;147768.06;5155965;27;20221;-57
2023/03/18 01:19:37;;;;;;;2.50;2.30;;;;;;;6.96;100.00;147797.03;5155702;27;20189;-58
2023/03/18 01:22:06;;;;;;;3.80;2.40;;;;;;;7.00;100.00;147807.09;5155162;27;20190;-58
2023/03/18 01:24:33;;;;;;;2.83;2.63;;;;;;;7.00;100.00;147805.88;5155587;27;20640;-57
2023/03/18 01:27:00;;;;;;;2.47;2.20;;;;;;;6.88;100.00;147776.88;5155560;27;20620;-59
2023/03/18 01:29:27;;;;;;;3.97;2.70;;;;;;;6.77;100.00;147750.44;5155197;27;20186;-57
2023/03/18 01:31:55;;;;;;;3.33;2.60;;;;;;;6.92;100.00;147786.94;5155187;27;20182;-57
2023/03/18 01:34:22;;;;;;;2.30;2.20;;;;;;;6.80;100.00;147756.72;5155063;27;20186;-57
2023/03/18 01:36:49;;;;;;;2.80;2.40;;;;;;;6.76;100.00;147746.63;5154987;27;20200;-59
2023/03/18 01:39:17;;;;;;;3.10;2.40;;;;;;;6.75;100.00;147745.34;5155196;27;20186;-58
2023/03/18 01:41:44;;;;;;;3.07;2.87;;;;;;;6.66;100.00;147722.66;5154982;27;20186;-58
2023/03/18 01:44:16;;;;;;;2.40;2.30;;;;;;;6.67;100.00;147725.22;5155190;27;20583;-58
2023/03/18 01:46:44;;;;;;;3.80;2.50;;;;;;;6.60;100.00;147707.59;5155084;27;20555;-57
2023/03/18 01:49:16;;;;;;;2.23;2.13;;;;;;;6.48;100.00;147676.09;5154107;27;20182;-58
2023/03/18 01:51:48;;;;;;;3.77;2.90;;;;;;;6.32;100.00;147637.06;5154898;27;20194;-57
2023/03/18 01:54:16;;;;;;;4.00;2.60;;;;;;;6.30;100.00;147632.00;5154652;27;20178;-59
2023/03/18 01:56:46;;;;;;;2.20;2.10;;;;;;;6.15;100.00;147594.22;5154811;27;20174;-58
2023/03/18 01:59:14;;;;;;;2.63;2.47;;;;;;;6.08;100.00;147576.56;5154904;27;20197;-58
2023/03/18 02:01:47;;;;;;;2.73;2.63;;;;;;;6.20;100.00;147608.03;5154536;27;20277;-58
2023/03/18 02:04:17;;;;;;;2.70;2.50;;;;;;;6.18;100.00;147601.78;5154175;27;20225;-59
2023/03/18 02:06:44;;;;;;;5.30;2.63;;;;;;;6.15;100.00;147595.50;5154811;27;20560;-58
2023/03/18 02:09:12;;;;;;;2.53;2.27;;;;;;;6.05;100.00;147570.28;5153704;27;20230;-58
2023/03/18 02:11:43;;;;;;;4.10;3.00;;;;;;;5.74;100.00;147493.41;5154318;27;20197;-58
2023/03/18 02:14:14;;;;;;;2.87;2.77;;;;;;;5.76;100.00;147497.22;5154371;27;20182;-57
2023/03/18 02:16:45;;;;;;;2.50;2.40;;;;;;;5.88;100.00;147527.47;5154398;27;20633;-58
2023/03/18 02:19:41;;;;;;;3.60;2.50;;;;;;;5.74;100.00;147493.41;5154159;27;20208;-58
2023/03/18 02:22:26;;;;;;;2.53;2.43;;;;;;;5.62;100.00;147461.94;5154186;27;20178;-57
2023/03/18 02:25:02;;;;;;;3.23;3.00;;;;;;;5.69;100.00;147479.56;5154188;27;20182;-56
2023/03/18 02:27:38;;;;;;;3.37;2.97;;;;;;;5.50;100.00;147433.00;5153793;27;20578;-59
2023/03/18 02:30:08;;;;;;;3.20;3.00;;;;;;;5.56;100.00;147446.88;5154107;27;20194;-57
2023/03/18 02:32:37;;;;;;;2.63;2.53;;;;;;;5.37;100.00;147400.28;5154018;27;20178;-58
2023/03/18 02:35:07;;;;;;;3.00;2.90;;;;;;;5.19;100.00;147354.94;5153563;27;20192;-58
2023/03/18 02:37:34;;;;;;;2.67;2.53;;;;;;;5.36;100.00;147397.75;5154170;27;20183;-57
2023/03/18 02:40:14;;;;;;;3.97;2.90;;;;;;;5.25;100.00;147371.34;5154156;27;20189;-58
2023/03/18 02:42:43;;;;;;;3.50;3.20;;;;;;;5.16;100.00;147347.41;5154087;27;20202;-57
2023/03/18 02:45:19;;;;;;;3.23;3.03;;;;;;;5.10;100.00;147332.28;5153317;27;20648;-58
2023/03/18 02:47:48;;;;;;;3.07;2.87;;;;;;;5.18;100.00;147353.69;5154099;27;20551;-57
2023/03/18 02:50:16;;;;;;;3.80;2.83;;;;;;;5.06;100.00;147324.75;5153696;27;20182;-58
2023/03/18 02:52:43;;;;;;;3.20;3.00;;;;;;;5.16;100.00;147348.69;5153832;27;20620;-58
2023/03/18 02:55:10;;;;;;;2.50;2.40;;;;;;;5.09;100.00;147329.81;5153898;27;20189;-57
2023/03/18 02:57:37;;;;;;;3.60;3.40;;;;;;;4.99;100.00;147305.91;5153354;27;20185;-59
2023/03/18 03:00:06;;;;;;;3.30;3.00;;;;;;;5.00;100.00;147309.69;5153420;27;20182;-56
2023/03/18 03:02:34;;;;;;;3.10;2.90;;;;;;;4.97;100.00;147300.84;5152867;27;20201;-57
2023/03/18 03:05:00;;;;;;;3.40;2.90;;;;;;;4.57;100.00;147202.75;5152969;27;20182;-58
2023/03/18 03:07:28;;;;;;;3.23;2.93;;;;;;;4.76;100.00;147248.00;5152868;27;20204;-57
2023/03/18 03:09:55;;;;;;;3.43;3.07;;;;;;;4.67;100.00;147226.63;5153087;27;20194;-59
2023/03/18 03:12:22;;;;;;;3.80;3.60;;;;;;;4.69;100.00;147231.69;5153988;27;20185;-58
2023/03/18 03:14:49;;;;;;;3.23;2.93;;;;;;;4.49;100.00;147182.63;5153292;27;20193;-57
2023/03/18 03:17:17;;;;;;;3.20;3.00;;;;;;;4.46;100.00;147173.78;5153489;27;20230;-59
2023/03/18 03:19:44;;;;;;;2.90;2.70;;;;;;;4.31;100.00;147137.34;5153169;27;20182;-59
2023/03/18 03:22:12;;;;;;;4.03;2.80;;;;;;;4.43;100.00;147166.25;5153270;27;20189;-57
2023/03/18 03:24:38;;;;;;;3.17;2.97;;;;;;;4.37;100.00;147152.41;5152651;27;20202;-57
2023/03/18 03:27:05;;;;;;;2.77;2.67;;;;;;;4.27;100.00;147127.28;5153637;27;20662;-58
2023/03/18 03:29:35;;;;;;;2.57;2.47;;;;;;;4.30;100.00;147133.56;5153284;27;20182;-59
2023/03/18 03:32:02;;;;;;;4.50;2.60;;;;;;;4.20;100.00;147108.44;5152505;27;20200;-58
2023/03/18 03:34:31;;;;;;;4.83;3.10;;;;;;;4.28;100.00;147129.81;5152456;27;20177;-57
2023/03/18 03:36:57;;;;;;;2.50;2.40;;;;;;;4.28;100.00;147128.56;5153527;27;20193;-57
2023/03/18 03:39:24;;;;;;;3.07;2.80;;;;;;;4.31;100.00;147136.09;5153354;27;20661;-57
2023/03/18 03:41:51;;;;;;;3.10;2.80;;;;;;;4.28;100.00;147128.56;5153038;27;20190;-58
2023/03/18 03:44:19;;;;;;;3.13;2.53;;;;;;;4.01;100.00;147063.16;5153308;27;20315;-59
2023/03/18 03:46:47;;;;;;;3.13;2.93;;;;;;;4.18;100.00;147104.66;5153564;27;20640;-58
2023/03/18 03:49:14;;;;;;;2.43;2.33;;;;;;;4.07;100.00;147077.00;5153094;27;20193;-58
2023/03/18 03:51:42;;;;;;;2.93;2.73;;;;;;;4.21;100.00;147110.91;5152657;27;20186;-58
2023/03/18 03:54:11;;;;;;;3.03;2.83;;;;;;;3.94;100.00;147045.59;5153361;27;20182;-57
2023/03/18 03:56:38;;;;;;;3.27;2.73;;;;;;;3.98;100.00;147054.38;5153198;27;20636;-58
2023/03/18 03:59:05;;;;;;;2.90;2.80;;;;;;;4.03;100.00;147068.16;5153083;27;20185;-59
2023/03/18 04:01:33;;;;;;;2.97;2.77;;;;;;;4.01;100.00;147061.91;5152181;27;20249;-58
2023/03/18 04:04:01;;;;;;;6.30;3.20;;;;;;;4.07;100.00;147078.22;5153105;27;20221;-57
2023/03/18 04:06:28;;;;;;;3.07;2.83;;;;;;;4.05;100.00;147073.22;5152382;27;20189;-57
2023/03/18 04:08:57;;;;;;;2.93;2.70;;;;;;;4.08;100.00;147079.50;5152783;27;20186;-58
2023/03/18 04:11:24;;;;;;;3.80;3.10;;;;;;;4.05;100.00;147073.22;5152486;27;20629;-58
2023/03/18 04:13:51;;;;;;;2.90;2.70;;;;;;;4.16;100.00;147098.38;5153147;27;20197;-57
2023/03/18 04:16:18;;;;;;;2.80;2.40;;;;;;;4.19;100.00;147105.91;5152837;27;20186;-57
2023/03/18 04:18:45;;;;;;;5.30;3.17;;;;;;;4.07;100.00;147078.22;5152781;27;20233;-59
2023/03/18 04:21:12;;;;;;;4.23;3.93;;;;;;;4.05;100.00;147073.22;5152973;27;20537;-57
2023/03/18 04:23:39;;;;;;;3.33;3.10;;;;;;;3.94;100.00;147044.31;5152634;27;20212;-59
2023/03/18 04:26:08;;;;;;;6.57;3.10;;;;;;;4.17;100.00;147100.88;5153162;27;20186;-59
2023/03/18 04:28:35;;;;;;;3.53;3.33;;;;;;;4.02;100.00;147065.69;5156641;27;20209;-58
2023/03/18 04:31:02;;;;;;;3.97;3.13;;;;;;;4.02;100.00;147065.69;5155899;27;20178;-59
2023/03/18 04:33:29;;;;;;;2.70;2.60;;;;;;;4.02;100.00;147065.69;5156504;27;20277;-57
2023/03/18 04:35:56;;;;;;;2.70;2.60;;;;;;;4.07;100.00;147077.00;5156220;27;20278;-58
2023/03/18 04:38:24;;;;;;;5.07;2.70;;;;;;;4.07;100.00;147078.22;5155618;27;20188;-58
2023/03/18 04:40:51;;;;;;;2.90;2.70;;;;;;;4.10;100.00;147085.81;5156241;27;20182;-58
2023/03/18 04:43:20;;;;;;;5.03;2.87;;;;;;;3.92;100.00;147040.53;5156328;27;20217;-57
2023/03/18 04:45:47;;;;;;;3.40;3.20;;;;;;;4.07;100.00;147077.00;5155557;27;20186;-57
2023/03/18 04:48:13;;;;;;;4.00;3.67;;;;;;;4.04;100.00;147069.44;5155714;27;20186;-57
2023/03/18 04:50:40;;;;;;;3.30;3.10;;;;;;;3.79;100.00;147006.59;5155289;27;20186;-59
2023/03/18 04:53:07;;;;;;;2.97;2.80;;;;;;;3.93;100.00;147043.06;5156346;27;20209;-58
2023/03/18 04:55:35;;;;;;;3.50;3.20;;;;;;;4.41;100.00;147161.25;5156440;27;20190;-58
2023/03/18 04:58:02;;;;;;;3.10;2.90;;;;;;;4.94;100.00;147293.31;5156182;27;20665;-57
2023/03/18 05:00:30;;;;;;;19.37;6.17;;;;;;;5.06;100.00;147324.75;5155861;27;20272;-57
2023/03/18 05:02:57;;;;;;;14.80;5.43;;;;;;;5.01;100.00;147312.16;5155819;27;20285;-57
2023/03/18 05:05:24;;;;;;;5.17;4.77;;;;;;;5.04;100.00;147319.75;5156008;27;20186;-58
2023/03/18 05:07:51;;;;;;;4.60;4.20;;;;;;;4.71;100.00;147236.69;5156046;27;20186;-58
2023/03/18 05:10:19;;;;;;;5.80;4.40;;;;;;;4.69;100.00;147230.41;5154808;27;20215;-57
2023/03/18 05:12:46;;;;;;;4.00;3.70;;;;;;;4.78;100.00;147253.06;5125947;27;20569;-58
2023/03/18 05:15:13;;;;;;;4.27;3.60;;;;;;;4.76;100.00;147249.28;5134111;27;20218;-57
2023/03/18 05:17:41;;;;;;;4.40;4.00;;;;;;;4.49;100.00;147182.63;5134807;27;20317;-58
2023/03/18 05:20:12;;;;;;;6.40;4.50;;;;;;;4.68;100.00;147229.16;5134966;27;20189;-58
2023/03/18 05:22:39;;;;;;;6.57;3.73;;;;;;;4.72;100.00;147237.94;5134101;27;20644;-57
2023/03/18 05:25:07;;;;;;;8.53;3.93;;;;;;;4.89;100.00;147280.72;5134413;27;20211;-58
2023/03/18 05:27:34;;;;;;;4.53;4.07;;;;;;;5.09;100.00;147329.81;5134495;27;20294;-58
2023/03/18 05:30:01;;;;;;;3.73;3.43;;;;;;;5.29;100.00;147381.41;5135015;27;20195;-58
2023/03/18 05:32:28;;;;;;;5.37;3.17;;;;;;;5.27;100.00;147375.09;5134783;27;20183;-58
2023/03/18 05:34:56;;;;;;;5.77;3.13;;;;;;;5.56;100.00;147448.06;5134737;27;20552;-58
2023/03/18 05:37:23;;;;;;;3.50;3.30;;;;;;;5.53;100.00;147440.53;5133911;27;20186;-60
2023/03/18 05:39:50;;;;;;;6.10;3.70;;;;;;;6.07;100.00;147574.09;5134328;27;20183;-59
2023/03/18 05:42:18;;;;;;;3.60;3.40;;;;;;;6.50;100.00;147681.09;5134215;27;20193;-58
2023/03/18 05:44:45;;;;;;;10.20;4.17;;;;;;;7.48;100.00;147926.88;5134284;27;20203;-58
2023/03/18 05:47:12;;;;;;;7.53;3.37;;;;;;;7.62;96.18;147962.19;5134219;27;20183;-60
2023/03/18 05:49:40;;;;;;;5.33;4.00;;;;;;;7.41;95.83;147909.25;5133208;27;20187;-60
2023/03/18 05:52:09;;;;;;;4.87;3.57;;;;;;;7.33;98.22;147890.34;5134319;27;20638;-59
2023/03/18 05:54:36;;;;;;;4.20;3.53;;;;;;;7.41;96.54;147909.25;5134384;27;20637;-58
2023/03/18 05:57:02;;;;;;;12.03;3.80;;;;;;;7.53;96.54;147939.50;5133253;27;20193;-59
2023/03/18 05:59:30;;;;;;;5.70;3.53;;;;;;;7.68;94.73;147976.09;5133993;27;20183;-58
2023/03/18 06:01:59;;;;;;;5.43;3.57;;;;;;;7.59;93.10;147954.66;5115382;27;20193;-59
2023/03/18 06:04:26;;;;;;;9.27;3.73;;;;;;;7.91;92.64;148032.81;5133830;27;20219;-59
2023/03/18 06:06:53;;;;;;;14.33;4.30;;;;;;;7.99;92.20;148054.25;5133736;27;20190;-60
2023/03/18 06:09:22;;;;;;;19.23;4.43;;;;;;;7.96;89.57;148045.44;5133109;27;20183;-59
2023/03/18 06:11:49;;;;;;;12.53;4.47;;;;;;;8.00;89.53;148055.50;5133271;27;20183;-60
2023/03/18 06:14:16;;;;;;;11.57;5.23;;;;;;;8.43;88.98;148164.06;5133659;27;20669;-59
2023/03/18 06:16:44;;;;;;;3.97;3.77;;;;;;;8.51;87.26;148183.00;5133835;27;20676;-59
2023/03/18 06:19:11;;;;;;;3.37;3.17;;;;;;;8.62;85.19;148212.00;5133333;27;20493;-59
2023/03/18 06:21:38;;;;;;;5.83;4.17;;;;;;;8.87;90.00;148272.63;5133679;27;20228;-60
2023/03/18 06:24:05;;;;;;;4.33;4.03;;;;;;;9.21;85.93;148358.44;5133148;27;20199;-58
2023/03/18 06:26:34;;;;;;;6.67;4.13;;;;;;;9.34;85.85;148391.25;5133432;27;20319;-59
2023/03/18 06:29:00;;;;;;;3.63;3.33;;;;;;;10.10;81.14;148580.72;5132912;27;20238;-60
2023/03/18 06:31:27;;;;;;;3.97;3.77;;;;;;;10.54;77.20;148692.00;5133668;27;20187;-59
2023/03/18 06:33:54;;;;;;;5.63;4.20;;;;;;;11.00;71.47;148805.78;5133948;27;20183;-61
2023/03/18 06:36:22;;;;;;;3.73;3.53;;;;;;;10.78;72.22;148750.13;5134567;27;20187;-59
2023/03/18 06:38:49;;;;;;;5.07;3.80;;;;;;;10.75;70.60;148743.84;5133353;27;20634;-60
2023/03/18 06:41:16;;;;;;;4.00;3.77;;;;;;;11.17;69.99;148848.78;5133441;27;20222;-61
2023/03/18 06:43:46;;;;;;;3.70;3.40;;;;;;;11.54;69.54;148939.88;5114714;27;20187;-59
2023/03/18 06:46:14;;;;;;;4.73;4.23;;;;;;;12.22;65.00;149111.97;5133267;27;20191;-59
2023/03/18 06:48:41;;;;;;;4.40;3.80;;;;;;;12.01;64.92;149058.81;5132504;27;20187;-59
2023/03/18 06:51:08;;;;;;;7.30;4.10;;;;;;;12.37;63.96;149148.69;5133019;27;20186;-60
2023/03/18 06:53:35;;;;;;;4.73;3.63;;;;;;;12.42;61.05;149161.38;5132775;27;20526;-59
2023/03/18 06:56:05;;;;;;;7.13;3.60;;;;;;;12.19;62.02;149103.13;5133304;27;20182;-59
2023/03/18 06:58:34;;;;;;;7.13;4.20;;;;;;;11.87;63.30;149024.69;5133195;27;20618;-61
2023/03/18 07:01:02;;;;;;;6.57;3.83;;;;;;;11.59;67.86;148953.75;5132537;27;20183;-59
2023/03/18 07:03:29;;;;;;;4.03;3.67;;;;;;;11.68;68.30;148975.25;5133311;27;20203;-60
2023/03/18 07:05:58;;;;;;;5.13;3.50;;;;;;;11.95;67.30;149043.66;5132884;27;20206;-60
2023/03/18 07:08:25;;;;;;;4.03;3.73;;;;;;;12.16;67.06;149096.81;5132309;27;20179;-60
2023/03/18 07:10:52;;;;;;;7.57;3.73;;;;;;;12.69;63.29;149228.44;5132461;27;20658;-60
2023/03/18 07:13:19;;;;;;;9.43;4.13;;;;;;;12.58;62.17;149200.59;5132760;27;20235;-59
2023/03/18 07:15:46;;;;;;;4.97;3.90;;;;;;;13.05;62.43;149319.63;5133108;27;20175;-60
2023/03/18 07:18:14;;;;;;;4.37;4.07;;;;;;;12.86;62.19;149271.50;5132616;27;20689;-59
2023/03/18 07:20:42;;;;;;;8.37;4.60;;;;;;;12.83;64.30;149263.91;5132837;27;20179;-60
2023/03/18 07:23:10;;;;;;;5.00;4.70;;;;;;;13.04;64.83;149315.81;5113553;28;20198;-60
2023/03/18 07:25:37;;;;;;;5.30;5.00;;;;;;;13.15;64.66;149343.75;5132594;28;20232;-59
2023/03/18 07:28:05;;;;;;;5.13;4.73;;;;;;;13.23;65.60;149365.28;5132735;28;20227;-59
2023/03/18 07:30:33;;;;;;;5.73;5.40;;;;;;;12.60;67.24;149206.91;5132640;28;20218;-59
2023/03/18 07:33:01;;;;;;;5.00;4.80;;;;;;;12.41;66.55;149157.56;5132442;28;20277;-61
2023/03/18 07:35:29;;;;;;;5.83;5.43;;;;;;;12.75;67.90;149243.66;5132524;28;20273;-59
2023/03/18 07:37:56;;;;;;;5.63;4.90;;;;;;;12.64;68.87;149217.09;5132670;28;20187;-59
2023/03/18 07:40:24;;;;;;;5.00;4.53;;;;;;;12.68;67.53;149225.94;5132425;28;20264;-60
2023/03/18 07:42:52;;;;;;;6.00;5.60;;;;;;;12.95;68.59;149293.03;5132475;28;20183;-60
2023/03/18 07:45:19;;;;;;;5.17;4.87;;;;;;;13.09;65.86;149329.78;5132296;28;20211;-59
2023/03/18 07:47:47;;;;;;;5.33;4.83;;;;;;;12.54;66.52;149191.75;5132690;28;20210;-59
2023/03/18 07:50:14;;;;;;;5.30;4.80;;;;;;;12.29;67.60;149129.72;5132164;28;20186;-59
2023/03/18 07:52:43;;;;;;;9.43;6.20;;;;;;;11.50;72.47;148929.75;5113854;28;20202;-58
2023/03/18 07:55:10;;;;;;;6.60;5.70;;;;;;;11.12;77.04;148836.13;5132751;28;20599;-58
2023/03/18 07:57:37;;;;;;;7.03;6.30;;;;;;;11.61;81.15;148957.56;5132254;28;20247;-59
2023/03/18 08:00:06;;;;;;;5.43;4.97;;;;;;;11.86;75.81;149020.88;5132467;28;20191;-58
2023/03/18 08:02:34;;;;;;;5.93;5.43;;;;;;;11.71;76.70;148982.88;5134067;27;20194;-58
2023/03/18 08:05:02;;;;;;;10.13;6.10;;;;;;;11.83;75.31;149013.28;5136192;27;20199;-59
2023/03/18 08:07:29;;;;;;;7.53;6.50;;;;;;;11.62;80.33;148960.09;5135750;27;20201;-58
2023/03/18 08:09:58;;;;;;;7.13;6.73;;;;;;;10.95;87.14;148793.13;5136261;27;20183;-58
2023/03/18 08:12:25;;;;;;;7.47;6.10;;;;;;;11.04;87.40;148815.91;5135693;27;20604;-59
2023/03/18 08:14:52;;;;;;;8.20;7.40;;;;;;;11.00;90.12;148805.78;5135846;27;20694;-58
2023/03/18 08:17:19;;;;;;;7.23;6.73;;;;;;;10.60;92.07;148704.66;5135103;27;20226;-58
2023/03/18 08:19:47;;;;;;;6.37;5.90;;;;;;;10.64;95.14;148716.03;5135909;27;20629;-58
2023/03/18 08:22:15;;;;;;;8.43;6.80;;;;;;;10.59;96.43;148702.13;5135912;27;20183;-59
2023/03/18 08:24:42;;;;;;;6.97;6.47;;;;;;;10.67;98.13;148722.34;5135063;27;20203;-58
2023/03/18 08:27:11;;;;;;;7.33;6.93;;;;;;;10.21;100.00;148608.59;5135095;27;20198;-59
2023/03/18 08:29:37;;;;;;;7.20;6.63;;;;;;;10.38;100.00;148650.31;5136119;27;20581;-59
2023/03/18 08:32:05;;;;;;;7.47;7.03;;;;;;;10.62;100.00;148709.69;5135849;27;20187;-59
2023/03/18 08:34:32;;;;;;;7.23;6.63;;;;;;;10.54;100.00;148692.00;5135337;27;20190;-58
2023/03/18 08:37:01;;;;;;;7.43;6.83;;;;;;;10.46;100.00;148671.78;5134916;27;20183;-58
2023/03/18 08:39:28;;;;;;;8.00;7.50;;;;;;;10.56;100.00;148694.56;5135537;27;20186;-58
2023/03/18 08:41:55;;;;;;;7.53;7.10;;;;;;;10.53;100.00;148689.47;5135826;27;20667;-58
2023/03/18 08:44:23;;;;;;;7.83;7.43;;;;;;;10.87;100.00;148772.91;5134719;27;20193;-59
2023/03/18 08:46:50;;;;;;;7.40;6.83;;;;;;;10.84;100.00;148766.59;5135851;27;20186;-58
2023/03/18 08:49:17;;;;;;;7.60;7.20;;;;;;;10.70;100.00;148731.19;5134881;27;20187;-58
2023/03/18 08:51:45;;;;;;;8.07;7.23;;;;;;;11.36;100.00;148896.84;5135601;27;20706;-59
2023/03/18 08:54:12;;;;;;;7.70;7.20;;;;;;;11.79;100.00;149004.44;5135512;27;20194;-60
2023/03/18 08:56:39;;;;;;;7.93;7.43;;;;;;;11.87;99.70;149023.41;5135292;27;20201;-59
2023/03/18 08:59:06;;;;;;;8.07;7.60;;;;;;;11.83;100.00;149014.56;5117233;27;20556;-58
2023/03/18 09:01:34;;;;;;;8.87;7.87;;;;;;;11.77;100.00;148998.09;5135600;27;20209;-58
2023/03/18 09:04:01;;;;;;;8.73;8.00;;;;;;;11.55;100.00;148942.38;5135388;27;20198;-58
2023/03/18 09:06:29;;;;;;;8.73;8.23;;;;;;;11.50;100.00;148930.97;5134527;27;20209;-58
2023/03/18 09:08:56;;;;;;;9.57;8.83;;;;;;;11.52;100.00;148934.78;5134821;27;20263;-58
2023/03/18 09:11:24;;;;;;;7.83;7.40;;;;;;;11.17;100.00;148848.78;5135375;27;20183;-58
2023/03/18 09:13:51;;;;;;;10.40;8.20;;;;;;;10.80;100.00;148756.50;5135187;27;20607;-58
2023/03/18 09:16:18;;;;;;;7.97;7.57;;;;;;;10.71;100.00;148732.44;5134330;27;20594;-59
2023/03/18 09:18:46;;;;;;;8.20;7.73;;;;;;;10.67;100.00;148723.63;5133899;27;20230;-58
2023/03/18 09:21:13;;;;;;;7.53;6.97;;;;;;;10.73;100.00;148738.81;5135041;27;20602;-59
2023/03/18 09:23:40;;;;;;;7.90;7.37;;;;;;;10.89;100.00;148779.25;5134598;27;20185;-58
2023/03/18 09:26:07;;;;;;;7.83;7.43;;;;;;;10.86;100.00;148771.63;5134619;27;20230;-57
2023/03/18 09:28:36;;;;;;;15.23;8.00;;;;;;;11.10;100.00;148831.09;5134677;27;20201;-58
2023/03/18 09:31:04;;;;;;;8.13;7.63;;;;;;;11.14;100.00;148839.94;5116808;27;20193;-59
2023/03/18 09:33:31;;;;;;;7.60;7.23;;;;;;;11.11;100.00;148832.38;5134642;27;20225;-59
2023/03/18 09:36:03;;;;;;;9.63;8.33;;;;;;;11.11;100.00;148833.63;5134533;27;20269;-58
2023/03/18 09:38:32;;;;;;;6.37;6.07;;;;;;;10.84;100.00;148765.31;5133803;27;20194;-60
2023/03/18 09:41:21;;;;;;;8.93;7.20;;;;;;;10.75;100.00;148742.56;5134420;27;20277;-58
2023/03/18 09:43:59;;;;;;;6.83;6.37;;;;;;;10.07;100.00;148573.16;5134406;27;20190;-58
2023/03/18 09:46:35;;;;;;;6.93;6.57;;;;;;;10.29;100.00;148627.56;5133914;27;20677;-58
2023/03/18 09:49:38;;;;;;;7.70;7.20;;;;;;;10.06;100.00;148570.63;5134514;27;20186;-59
2023/03/18 09:52:17;;;;;;;8.00;7.47;;;;;;;10.24;100.00;148616.19;5134613;27;20243;-58
2023/03/18 09:54:49;;;;;;;7.33;6.93;;;;;;;10.13;100.00;148588.34;5134338;27;20183;-58
2023/03/18 09:57:19;;;;;;;7.73;7.23;;;;;;;10.24;100.00;148614.91;5133680;27;20630;-58
2023/03/18 09:59:50;;;;;;;7.10;6.80;;;;;;;10.08;100.00;148576.97;5133712;27;20186;-58
2023/03/18 10:02:23;;;;;;;10.93;10.17;;;;;;;9.85;100.00;148517.56;5133452;27;20186;-57
2023/03/18 10:04:55;;;;;;;7.57;7.17;;;;;;;9.91;100.00;148532.75;5134045;27;20206;-59
2023/03/18 10:07:29;;;;;;;8.40;7.80;;;;;;;9.91;100.00;148534.00;5133867;27;20190;-59
2023/03/18 10:10:02;;;;;;;6.87;6.27;;;;;;;9.54;100.00;148440.53;5133824;27;20182;-58
2023/03/18 10:12:32;;;;;;;6.40;5.90;;;;;;;9.59;100.00;148454.41;5133677;27;20183;-58
2023/03/18 10:15:13;;;;;;;6.70;6.30;;;;;;;9.80;100.00;148504.97;5134059;27;20214;-58
2023/03/18 10:17:44;;;;;;;10.50;6.13;;;;;;;9.87;100.00;148523.91;5133837;27;20237;-58
2023/03/18 10:20:18;;;;;;;6.50;6.20;;;;;;;9.78;100.00;148501.16;5115487;27;20183;-59
2023/03/18 10:22:57;;;;;;;7.57;7.17;;;;;;;9.89;100.00;148527.66;5133844;27;20625;-58
2023/03/18 10:25:28;;;;;;;7.57;7.17;;;;;;;10.00;100.00;148555.50;5132632;27;20380;-58
2023/03/18 10:28:09;;;;;;;6.93;6.53;;;;;;;9.83;100.00;148512.53;5133451;27;20190;-57
2023/03/18 10:30:50;;;;;;;6.47;6.17;;;;;;;9.86;100.00;148520.09;5133109;27;20186;-58
2023/03/18 10:33:25;;;;;;;6.60;6.00;;;;;;;10.00;100.00;148556.75;5133605;27;20533;-59
2023/03/18 10:35:59;;;;;;;7.20;6.53;;;;;;;9.79;100.00;148502.44;5132905;27;20179;-58
2023/03/18 10:38:33;;;;;;;6.53;6.13;;;;;;;9.95;100.00;148542.84;5132894;27;20193;-58
2023/03/18 10:41:01;;;;;;;5.80;5.60;;;;;;;9.70;100.00;148479.69;5115412;27;20264;-59
2023/03/18 10:43:31;;;;;;;6.97;6.40;;;;;;;9.83;100.00;148512.53;5132685;27;20182;-58
2023/03/18 10:46:01;;;;;;;6.90;6.37;;;;;;;9.82;100.00;148511.25;5132962;27;20218;-59
2023/03/18 10:48:32;;;;;;;7.60;7.20;;;;;;;9.76;100.00;148496.09;5132787;27;20191;-59
2023/03/18 10:51:08;;;;;;;7.00;6.70;;;;;;;9.55;100.00;148444.31;5133054;27;20187;-59
2023/03/18 10:53:42;;;;;;;7.03;6.50;;;;;;;9.74;100.00;148491.06;5132327;27;20580;-59
2023/03/18 10:56:11;;;;;;;7.90;7.30;;;;;;;9.59;100.00;148454.41;5133227;27;20590;-59
2023/03/18 10:58:40;;;;;;;7.50;7.00;;;;;;;9.51;100.00;148434.19;5132886;27;20239;-58
2023/03/18 11:01:07;;;;;;;7.03;6.63;;;;;;;9.33;100.00;148388.78;5133256;27;20183;-58
2023/03/18 11:03:41;;;;;;;6.63;6.13;;;;;;;9.57;100.00;148448.09;5133142;27;20549;-58
2023/03/18 11:06:16;;;;;;;5.83;5.53;;;;;;;9.58;100.00;148451.91;5133107;27;20591;-59
2023/03/18 11:08:48;;;;;;;5.80;5.40;;;;;;;9.69;100.00;148477.16;5132020;27;20186;-58
2023/03/18 11:11:27;;;;;;;6.00;5.67;;;;;;;9.60;100.00;148455.66;5132744;27;20641;-59
2023/03/18 11:13:55;;;;;;;5.83;5.63;;;;;;;9.60;100.00;148456.94;5133174;27;20626;-58
2023/03/18 11:16:41;;;;;;;7.07;6.67;;;;;;;9.63;100.00;148463.28;5132811;27;20534;-58
2023/03/18 11:19:28;;;;;;;5.20;5.00;;;;;;;9.45;100.00;148419.06;5048662;28;20253;-59
2023/03/18 11:22:05;;;;;;;6.27;5.77;;;;;;;9.53;100.00;148438.00;5047476;28;20197;-59
2023/03/18 11:24:41;;;;;;;6.10;5.80;;;;;;;9.53;100.00;148439.28;5048624;28;20288;-59
2023/03/18 11:27:25;;;;;;;7.37;6.77;;;;;;;9.58;100.00;148451.91;5048828;28;20752;-58
2023/03/18 11:29:56;;;;;;;6.27;5.97;;;;;;;9.77;100.00;148498.63;5048734;28;20616;-58
2023/03/18 11:32:27;;;;;;;6.40;6.10;;;;;;;9.96;100.00;148545.38;5048528;28;20189;-60